• Join FlightAware (Why Join?)
  • Login
  • US Flag 
02:14AM EDT


 

Airport Tracker/Info


-or-


 

Live Flight TrackerFlight Track Log ✈ VNR143 ✈ 02-May-2012 ✈ KSPI - KJWN

Flight Track Log - Related Links

Times and Time Zones

All times are in EDT time to prevent confusion due to time zone crossing. See the VNR143 flight status page for this flight to view local times or setup timezone preferences in your user account.

Time Position Orientation Groundspeed Altitude Reporting Facility
EDT Latitude Longitude Course Direction KTS MPH feet Rate Location/Type
05:02PM 39.7483 -89.6196 19° North  Level FlightAware Approximate
05:03PM 39.7603 -89.6142 154° Southeast 185 213 4,800  Level Kansas City Center
05:04PM 39.7069 -89.5800 153° Southeast 197 227 6,200 1,500 Climbing Kansas City Center
05:05PM 39.6489 -89.5408 149° Southeast 213 245 7,800 1,500 Climbing Kansas City Center
05:06PM 39.5908 -89.4964 154° Southeast 229 264 9,300 1,440 Climbing Kansas City Center
05:07PM 39.5244 -89.4553 153° Southeast 249 287 10,700 1,380 Climbing Kansas City Center
05:08PM 39.4558 -89.4092 150° Southeast 255 293 12,100 1,500 Climbing Kansas City Center
05:09PM 39.3911 -89.3600 153° Southeast 280 322 13,700 1,440 Climbing Kansas City Center
05:10PM 39.3289 -89.3189 153° Southeast 275 316 15,000 600 Climbing Kansas City Center
05:11PM 39.2431 -89.2633 152° Southeast 288 331 15,000  Level Kansas City Center
05:12PM 39.1658 -89.2100 150° Southeast 306 352 15,000  Level Kansas City Center
05:13PM 39.0881 -89.1514 149° Southeast 322 371 15,000 300 Level Kansas City Center
05:14PM 39.0211 -89.1003 152° Southeast 319 367 15,700 720 Climbing Kansas City Center
05:15PM 38.9372 -89.0425 151° Southeast 319 367 16,500 600 Climbing Kansas City Center
05:16PM 38.8661 -88.9917 151° Southeast 329 379 16,900 600 Climbing Kansas City Center
05:17PM 38.7819 -88.9314 150° Southeast 322 371 17,800 840 Climbing Kansas City Center
05:18PM 38.7064 -88.8761 152° Southeast 322 371 18,600 900 Climbing Kansas City Center
05:19PM 38.6264 -88.8211 149° Southeast 328 377 19,600 900 Climbing Kansas City Center
05:20PM 38.5486 -88.7606 151° Southeast 328 377 20,400 900 Climbing Kansas City Center
05:21PM 38.4664 -88.7033 152° Southeast 333 383 21,400 1,080 Climbing Kansas City Center
05:22PM 38.3889 -88.6511 150° Southeast 333 383 22,600 1,200 Climbing Kansas City Center
05:23PM 38.3086 -88.5914 150° Southeast 333 383 23,900 1,200 Climbing Kansas City Center
05:24PM 38.2264 -88.5317 150° Southeast 333 383 25,000 300 Climbing Kansas City Center
05:26PM 38.0311 -88.3906 140° Southeast 350 403 25,000  Level Indianapolis Center
05:27PM 37.9511 -88.3061 140° Southeast 371 427 25,000  Level Indianapolis Center
05:28PM 37.8731 -88.2222 140° Southeast 376 433 25,000 -300 Level Indianapolis Center
05:29PM 37.7931 -88.1383 140° Southeast 376 433 24,500 -480 Descending Indianapolis Center
05:30PM 37.7061 -88.0478 140° Southeast 369 425 24,100 -480 Descending Memphis Center
05:31PM 37.6275 -87.9639 141° Southeast 369 425 23,600 -540 Descending Memphis Center
05:32PM 37.5508 -87.8850 141° Southeast 364 419 23,100 -540 Descending Memphis Center
05:33PM 37.4722 -87.8039 140° Southeast 364 419 22,600 -600 Descending Memphis Center
05:34PM 37.3892 -87.7153 140° Southeast 380 437 22,000 -600 Descending Memphis Center
05:35PM 37.3125 -87.6344 142° Southeast 374 430 21,500 -540 Descending Memphis Center
05:36PM 37.2358 -87.5589 140° Southeast 360 414 21,000 -540 Descending Memphis Center
05:37PM 37.1589 -87.4783 141° Southeast 360 414 20,500 -540 Descending Memphis Center
05:38PM 37.0756 -87.3928 140° Southeast 354 407 20,000 -900 Descending Memphis Center
05:39PM 37.0008 -87.3153 143° Southeast 354 407 18,700 -1,680 Descending Memphis Center
05:40PM 36.9303 -87.2478 140° Southeast 343 395 16,700 -2,040 Descending Memphis Center
05:41PM 36.8639 -87.1778 141° Southeast 324 373 14,700 -1,980 Descending Memphis Center
05:42PM 36.7975 -87.1103 143° Southeast 314 361 12,800 -1,920 Descending Memphis Center
05:43PM 36.7314 -87.0483 153° Southeast 304 350 10,900 -1,800 Descending Memphis Center
05:44PM 36.6592 -87.0022 155° Southeast 294 338 9,200 -1,500 Descending Memphis Center
05:45PM 36.5894 -86.9611 154° Southeast 284 327 8,000 -1,500 Descending Memphis Center
05:46PM 36.5217 -86.9200 155° Southeast 279 321 6,300 -1,320 Descending Memphis Center
05:47PM 36.4686 -86.8889 155° Southeast 259 298 5,400 -1,200 Descending Memphis Center
05:48PM 36.4156 -86.8575 137° Southeast 224 258 4,000 -720 Descending Memphis Center
05:49PM 36.3811 -86.8178 137° Southeast 188 216 4,000  Level Memphis Center
05:50PM 36.3508 -86.7831 222° Southwest 160 184 4,000 -300 Level Memphis Center
05:51PM 36.3125 -86.8258 211° Southwest 148 170 3,400 -840 Descending Memphis Center
05:52PM 36.2758 -86.8533 193° South 159 183 2,400 -1,020 Descending Memphis Center
06:04PM 36.1667 -86.8833 193° South  Level FlightAware Approximate